createdAt,value
2018-05-06T00:03:51.667Z,7.83
2018-05-06T00:09:46.683Z,6.83
2018-05-06T00:15:41.657Z,7.7
2018-05-06T00:21:36.658Z,7.38
2018-05-06T00:27:31.671Z,7.62
2018-05-06T00:33:26.668Z,7.55
2018-05-06T00:39:21.662Z,6.82
2018-05-06T00:45:16.691Z,7.44
2018-05-06T00:51:11.673Z,7.13
2018-05-06T00:57:06.656Z,7.77
2018-05-06T01:03:01.685Z,7.35
2018-05-06T01:08:56.698Z,8.35
2018-05-06T01:14:51.681Z,7.45
2018-05-06T01:20:46.719Z,7.16
2018-05-06T01:26:41.740Z,7.57
2018-05-06T01:32:36.710Z,8.64
2018-05-06T01:38:31.726Z,8.19
2018-05-06T01:44:26.713Z,7.18
2018-05-06T01:50:21.756Z,7.99
2018-05-06T01:56:16.761Z,7.82
2018-05-06T02:02:11.743Z,7.9
2018-05-06T02:08:06.755Z,7.78
2018-05-06T02:14:01.744Z,8.01
2018-05-06T02:19:56.735Z,8.4
2018-05-06T02:25:51.788Z,8.14
2018-05-06T02:31:46.724Z,7.62
2018-05-06T02:37:41.733Z,7.73
2018-05-06T02:43:36.748Z,8.32
2018-05-06T02:49:31.787Z,8.71
2018-05-06T02:55:26.752Z,8.19
2018-05-06T03:01:21.772Z,7.95
2018-05-06T03:07:16.781Z,8.39
2018-05-06T03:13:11.774Z,9
2018-05-06T03:19:06.765Z,8.95
2018-05-06T03:25:01.807Z,9.45
2018-05-06T03:30:56.782Z,8.92
2018-05-06T03:36:51.786Z,8.82
2018-05-06T03:42:46.807Z,9.48
2018-05-06T03:48:41.792Z,9.9
2018-05-06T03:54:36.842Z,10.37
2018-05-06T04:00:31.808Z,9.92
2018-05-06T04:06:26.823Z,9.71
2018-05-06T04:12:21.823Z,10.45
2018-05-06T04:18:16.825Z,10.11
2018-05-06T04:24:11.859Z,9.33
2018-05-06T04:30:06.841Z,9.67
2018-05-06T04:36:01.820Z,9.4
2018-05-06T04:41:56.829Z,8.96
2018-05-06T04:47:51.852Z,9.98
2018-05-06T04:53:46.865Z,8.54
2018-05-06T04:59:41.855Z,9.57
2018-05-06T05:05:36.836Z,9.48
2018-05-06T05:11:31.935Z,9.09
2018-05-06T05:17:26.836Z,9.46
2018-05-06T05:23:21.888Z,9.75
2018-05-06T05:29:16.879Z,10.73
2018-05-06T05:35:11.875Z,9.45
2018-05-06T05:41:06.892Z,11.09
2018-05-06T05:47:01.892Z,11.5
2018-05-06T05:52:56.879Z,12.32
2018-05-06T05:58:51.911Z,11.24
2018-05-06T06:04:46.939Z,12.02
2018-05-06T06:10:41.911Z,11.43
2018-05-06T06:16:36.896Z,11.02
2018-05-06T06:22:31.910Z,10.9
2018-05-06T06:28:26.900Z,10.33
2018-05-06T06:34:21.935Z,12.22
2018-05-06T06:40:16.980Z,12.75
2018-05-06T06:46:11.900Z,13.85
2018-05-06T06:52:06.937Z,13.12
2018-05-06T06:58:01.913Z,14.29
2018-05-06T07:03:56.938Z,17.28
2018-05-06T07:09:51.941Z,40.05
2018-05-06T07:15:46.930Z,36.53
2018-05-06T07:21:41.929Z,30.22
2018-05-06T07:27:37.020Z,30.14
2018-05-06T07:33:31.977Z,31.49
2018-05-06T07:39:27.000Z,28.77
2018-05-06T07:45:21.965Z,22.53
2018-05-06T07:51:17.010Z,20.39
2018-05-06T07:57:11.950Z,19.83
2018-05-06T08:03:07.015Z,18.82
2018-05-06T08:09:02.050Z,17.11
2018-05-06T08:14:57.033Z,17.14
2018-05-06T08:20:52.010Z,16.06
2018-05-06T08:26:47.002Z,17.01
2018-05-06T08:32:42.001Z,15.71
2018-05-06T08:38:36.986Z,16.1
2018-05-06T08:44:32.020Z,14.22
2018-05-06T08:50:27.003Z,18.38
2018-05-06T08:56:21.994Z,14.92
2018-05-06T09:02:17.033Z,18.67
2018-05-06T09:08:12.055Z,25.72
2018-05-06T09:14:07.059Z,21.47
2018-05-06T09:20:02.045Z,32.69
2018-05-06T09:25:57.044Z,16.57
2018-05-06T09:31:52.056Z,14.63
2018-05-06T09:37:47.139Z,21.76
2018-05-06T09:43:42.035Z,16.14
2018-05-06T09:49:37.066Z,19.03
2018-05-06T09:55:32.076Z,11.9
2018-05-06T10:01:27.080Z,13.75
2018-05-06T10:07:22.064Z,12.22
2018-05-06T10:13:17.102Z,11.55
2018-05-06T10:19:12.084Z,9.64
2018-05-06T10:25:07.132Z,7.38
2018-05-06T10:31:02.080Z,8.11
2018-05-06T10:36:57.101Z,7.36
2018-05-06T10:42:52.105Z,7.81
2018-05-06T10:48:47.117Z,7.44
2018-05-06T10:54:42.174Z,7.3
2018-05-06T11:00:37.105Z,7.78
2018-05-06T11:06:32.137Z,9.11
2018-05-06T11:12:27.102Z,7.71
2018-05-06T11:18:22.134Z,7.63
2018-05-06T11:24:17.097Z,8.7
2018-05-06T11:30:12.131Z,9.37
2018-05-06T11:36:07.153Z,9.12
2018-05-06T11:42:02.144Z,9.31
2018-05-06T11:47:57.152Z,8.87
2018-05-06T11:53:52.153Z,8.66
2018-05-06T11:59:47.145Z,9.37
2018-05-06T12:05:42.172Z,9.47
2018-05-06T12:11:37.148Z,8.76
2018-05-06T12:17:32.154Z,9.07
2018-05-06T12:23:27.219Z,8.56
2018-05-06T12:29:22.193Z,9.2
2018-05-06T12:35:17.167Z,8.87
2018-05-06T12:41:12.215Z,10.8
2018-05-06T12:47:07.261Z,9.88
2018-05-06T12:53:02.183Z,9.05
2018-05-06T12:58:57.229Z,8.65
2018-05-06T13:04:52.225Z,8.82
2018-05-06T13:10:47.219Z,8.67
2018-05-06T13:16:42.219Z,8.05
2018-05-06T13:22:37.277Z,9.5
2018-05-06T13:28:32.227Z,8.38
2018-05-06T13:34:27.284Z,8.64
2018-05-06T13:40:22.250Z,8.4
2018-05-06T13:46:17.259Z,8.87
2018-05-06T13:52:12.255Z,9.54
2018-05-06T13:58:07.252Z,10.1
2018-05-06T14:04:02.272Z,9.44
2018-05-06T14:09:57.269Z,9.18
2018-05-06T14:15:52.366Z,9.79
2018-05-06T14:21:47.539Z,9.03
2018-05-06T14:27:42.246Z,9.19
2018-05-06T14:33:37.269Z,8.87
2018-05-06T14:39:32.387Z,8.27
2018-05-06T14:45:27.308Z,8.66
2018-05-06T14:51:22.284Z,8.74
2018-05-06T14:57:17.282Z,9.43
2018-05-06T15:03:12.309Z,8.74
2018-05-06T15:09:07.281Z,8.6
2018-05-06T15:15:02.301Z,8.85
2018-05-06T15:20:57.320Z,9.44
2018-05-06T15:26:52.315Z,8.81
2018-05-06T15:32:47.332Z,9.1
2018-05-06T15:38:42.360Z,9.55
2018-05-06T15:44:37.376Z,9.18
2018-05-06T15:50:32.357Z,8.97
2018-05-06T15:56:27.326Z,27.36
2018-05-06T16:02:22.826Z,10.03
2018-05-06T16:08:17.369Z,8.55
2018-05-06T16:14:12.345Z,8.99
2018-05-06T16:20:07.394Z,8.79
2018-05-06T16:26:02.391Z,9.03
2018-05-06T16:31:57.357Z,9.34
2018-05-06T16:37:52.498Z,11.22
2018-05-06T16:43:47.410Z,11.78
2018-05-06T16:49:42.398Z,11.61
2018-05-06T16:55:37.479Z,12.09
2018-05-06T17:01:32.409Z,12.24
2018-05-06T17:07:27.378Z,13.17
2018-05-06T17:13:22.389Z,12.43
2018-05-06T17:19:17.394Z,12.12
2018-05-06T17:25:12.407Z,12.24
2018-05-06T17:31:07.394Z,12.58
2018-05-06T17:37:02.411Z,11.9
2018-05-06T17:42:57.427Z,11.8
2018-05-06T17:48:52.406Z,12.43
2018-05-06T17:54:47.473Z,12.34
2018-05-06T18:00:42.439Z,12.09
2018-05-06T18:06:37.433Z,13.15
2018-05-06T18:12:32.463Z,14.55
2018-05-06T18:18:27.503Z,13.05
2018-05-06T18:24:22.483Z,13.35
2018-05-06T18:30:17.473Z,12.18
2018-05-06T18:36:12.472Z,12.18
2018-05-06T18:42:07.496Z,12.98
2018-05-06T18:48:02.507Z,12.98
2018-05-06T18:53:57.488Z,12.25
2018-05-06T18:59:52.477Z,13.92
2018-05-06T19:05:47.472Z,13.02
2018-05-06T19:11:42.499Z,13.08
2018-05-06T19:17:37.546Z,14.12
2018-05-06T19:23:32.513Z,12.14
2018-05-06T19:29:27.578Z,13.72
2018-05-06T19:35:22.533Z,14.87
2018-05-06T19:41:17.536Z,14.12
2018-05-06T19:47:12.576Z,13.93
2018-05-06T19:53:07.529Z,13.93
2018-05-06T19:59:02.501Z,14.12
2018-05-06T20:04:57.508Z,14.25
2018-05-06T20:10:52.552Z,14.06
2018-05-06T20:16:47.545Z,15.59
2018-05-06T20:22:42.566Z,14.05
2018-05-06T20:28:37.524Z,14.67
2018-05-06T20:34:32.562Z,15.68
2018-05-06T20:40:27.552Z,14.72
2018-05-06T20:46:22.549Z,14.65
2018-05-06T20:52:17.547Z,14.48
2018-05-06T20:58:12.561Z,13.71
2018-05-06T21:04:07.567Z,13.94
2018-05-06T21:10:02.624Z,12.99
2018-05-06T21:15:57.573Z,13.69
2018-05-06T21:21:52.563Z,14.5
2018-05-06T21:27:47.727Z,13.63
2018-05-06T21:33:42.575Z,13.62
2018-05-06T21:39:37.652Z,13.82
2018-05-06T21:45:32.726Z,15.27
2018-05-06T21:51:27.607Z,14.44
2018-05-06T21:57:22.671Z,13.95
2018-05-06T22:03:17.595Z,14.49
2018-05-06T22:09:12.661Z,13.78
2018-05-06T22:15:07.611Z,14.7
2018-05-06T22:21:02.631Z,13.81
2018-05-06T22:26:57.680Z,15.23
2018-05-06T22:32:52.637Z,14.85
2018-05-06T22:38:47.647Z,15.39
2018-05-06T22:44:42.659Z,14.54
2018-05-06T22:50:37.655Z,15.45
2018-05-06T22:56:32.683Z,14.98
2018-05-06T23:02:27.666Z,15.39
2018-05-06T23:08:22.662Z,15.65
2018-05-06T23:14:17.660Z,16.53
2018-05-06T23:20:12.660Z,15.59
2018-05-06T23:26:07.643Z,16.57
2018-05-06T23:32:02.676Z,15.22
2018-05-06T23:37:57.685Z,16.88
2018-05-06T23:43:52.824Z,16.09
2018-05-06T23:49:47.785Z,17.44
2018-05-06T23:55:42.746Z,15.16
